createdAt,value
2018-07-27T00:01:02.498Z,58.30
2018-07-27T00:03:31.334Z,58.90
2018-07-27T00:06:00.277Z,59.10
2018-07-27T00:08:29.409Z,59.50
2018-07-27T00:10:58.197Z,59.40
2018-07-27T00:13:27.034Z,59.00
2018-07-27T00:15:55.914Z,58.90
2018-07-27T00:18:24.682Z,58.80
2018-07-27T00:20:53.529Z,58.80
2018-07-27T00:23:22.358Z,58.80
2018-07-27T00:25:51.134Z,58.60
2018-07-27T00:28:19.982Z,58.70
2018-07-27T00:30:48.788Z,58.40
2018-07-27T00:33:17.581Z,58.50
2018-07-27T00:35:46.747Z,58.90
2018-07-27T00:38:15.553Z,59.10
2018-07-27T00:40:44.334Z,59.10
2018-07-27T00:43:13.296Z,59.10
2018-07-27T00:45:42.093Z,58.60
2018-07-27T00:48:10.883Z,59.20
2018-07-27T00:50:39.773Z,59.10
2018-07-27T00:53:08.594Z,59.40
2018-07-27T00:55:37.390Z,59.60
2018-07-27T00:58:06.494Z,59.50
2018-07-27T01:00:35.318Z,59.50
2018-07-27T01:03:04.309Z,59.50
2018-07-27T01:05:33.216Z,59.40
2018-07-27T01:08:02.016Z,59.10
2018-07-27T01:10:30.818Z,59.20
2018-07-27T01:12:59.808Z,59.40
2018-07-27T01:15:28.623Z,59.30
2018-07-27T01:17:57.525Z,59.10
2018-07-27T01:20:26.398Z,59.00
2018-07-27T01:22:55.190Z,59.30
2018-07-27T01:25:23.973Z,59.00
2018-07-27T01:30:21.316Z,58.90
2018-07-27T01:32:50.107Z,58.70
2018-07-27T01:35:18.900Z,59.20
2018-07-27T01:37:47.682Z,59.60
2018-07-27T01:40:16.472Z,58.40
2018-07-27T01:42:45.275Z,58.00
2018-07-27T01:45:14.091Z,57.80
2018-07-27T01:47:42.861Z,57.90
2018-07-27T01:50:11.677Z,58.00
2018-07-27T01:52:40.493Z,58.50
2018-07-27T01:55:09.318Z,58.10
2018-07-27T01:57:38.164Z,58.00
2018-07-27T02:00:07.153Z,58.20
2018-07-27T02:02:35.986Z,58.40
2018-07-27T02:05:05.483Z,58.60
2018-07-27T02:07:34.260Z,58.10
2018-07-27T02:10:03.078Z,58.10
2018-07-27T02:12:31.895Z,58.50
2018-07-27T02:15:00.670Z,58.80
2018-07-27T02:17:29.509Z,59.00
2018-07-27T02:19:58.433Z,58.80
2018-07-27T02:24:55.598Z,59.40
2018-07-27T02:27:24.452Z,59.50
2018-07-27T02:29:53.251Z,60.00
2018-07-27T02:32:22.168Z,60.40
2018-07-27T02:34:51.022Z,60.60
2018-07-27T02:37:19.849Z,60.90
2018-07-27T02:39:48.736Z,60.80
2018-07-27T02:42:17.953Z,60.60
2018-07-27T02:44:46.744Z,60.90
2018-07-27T02:47:15.517Z,60.20
2018-07-27T02:49:44.650Z,58.80
2018-07-27T02:54:41.909Z,57.40
2018-07-27T02:57:10.720Z,58.30
2018-07-27T02:59:39.518Z,58.10
2018-07-27T03:02:08.420Z,57.60
2018-07-27T03:04:37.262Z,57.60
2018-07-27T03:07:06.145Z,57.30
2018-07-27T03:09:34.949Z,57.10
2018-07-27T03:12:04.230Z,57.10
2018-07-27T03:14:33.023Z,56.70
2018-07-27T03:17:01.816Z,56.70
2018-07-27T03:19:30.602Z,56.60
2018-07-27T03:21:59.474Z,56.60
2018-07-27T03:24:28.396Z,56.30
2018-07-27T03:26:57.168Z,56.50
2018-07-27T03:29:25.964Z,56.20
2018-07-27T03:31:54.980Z,56.10
2018-07-27T03:34:23.783Z,56.00
2018-07-27T03:36:52.592Z,56.60
2018-07-27T03:39:21.668Z,56.70
2018-07-27T03:41:50.457Z,56.70
2018-07-27T03:44:19.218Z,57.30
2018-07-27T03:46:48.061Z,57.60
2018-07-27T03:49:16.869Z,57.70
2018-07-27T03:51:45.655Z,57.40
2018-07-27T03:54:14.573Z,57.10
2018-07-27T03:56:43.397Z,57.30
2018-07-27T03:59:12.184Z,57.20
2018-07-27T04:01:41.047Z,56.90
2018-07-27T04:04:09.840Z,56.70
2018-07-27T04:06:38.621Z,57.40
2018-07-27T04:09:08.898Z,57.40
2018-07-27T04:11:38.139Z,56.10
2018-07-27T04:14:07.143Z,55.00
2018-07-27T04:16:35.953Z,55.50
2018-07-27T04:19:04.740Z,55.30
2018-07-27T04:21:33.576Z,55.40
2018-07-27T04:24:02.454Z,55.40
2018-07-27T04:26:31.241Z,55.70
2018-07-27T04:29:00.023Z,56.10
2018-07-27T04:31:28.854Z,56.40
2018-07-27T04:33:57.941Z,55.70
2018-07-27T04:36:26.791Z,55.50
2018-07-27T04:38:55.627Z,55.20
2018-07-27T04:41:24.405Z,55.10
2018-07-27T04:43:53.253Z,55.50
2018-07-27T04:46:22.108Z,55.00
2018-07-27T04:48:50.893Z,54.40
2018-07-27T04:51:19.665Z,54.90
2018-07-27T04:53:48.840Z,54.40
2018-07-27T04:56:17.682Z,54.30
2018-07-27T04:58:46.542Z,54.10
2018-07-27T05:01:15.722Z,53.60
2018-07-27T05:03:44.510Z,53.20
2018-07-27T05:06:13.297Z,53.80
2018-07-27T05:08:47.346Z,53.60
2018-07-27T05:11:16.151Z,53.40
2018-07-27T05:13:44.991Z,53.60
2018-07-27T05:16:14.122Z,53.50
2018-07-27T05:18:42.939Z,51.90
2018-07-27T05:21:11.812Z,52.50
2018-07-27T05:23:41.080Z,52.30
2018-07-27T05:26:09.906Z,52.30
2018-07-27T05:28:38.741Z,52.00
2018-07-27T05:31:07.609Z,52.80
2018-07-27T05:33:36.434Z,51.80
2018-07-27T05:36:05.288Z,52.10
2018-07-27T05:38:34.641Z,51.40
2018-07-27T05:41:03.469Z,51.20
2018-07-27T05:43:32.298Z,51.50
2018-07-27T05:46:01.223Z,51.60
2018-07-27T05:48:30.103Z,50.60
2018-07-27T05:50:58.868Z,49.70
2018-07-27T05:53:27.807Z,50.30
2018-07-27T05:55:56.655Z,50.10
2018-07-27T05:58:25.541Z,50.60
2018-07-27T06:00:54.489Z,50.30
2018-07-27T06:03:23.280Z,49.90
2018-07-27T06:05:52.100Z,50.30
2018-07-27T06:08:21.119Z,49.60
2018-07-27T06:10:49.930Z,49.70
2018-07-27T06:13:18.739Z,49.20
2018-07-27T06:15:47.611Z,49.20
2018-07-27T06:18:16.507Z,49.20
2018-07-27T06:20:45.262Z,48.20
2018-07-27T06:23:14.096Z,48.50
2018-07-27T06:25:42.941Z,47.70
2018-07-27T06:28:11.784Z,47.50
2018-07-27T06:30:40.594Z,47.80
2018-07-27T06:35:37.821Z,47.20
2018-07-27T06:38:06.762Z,47.70
2018-07-27T06:40:35.587Z,46.30
2018-07-27T06:43:04.427Z,46.10
2018-07-27T06:45:33.446Z,46.10
2018-07-27T06:48:02.346Z,47.00
2018-07-27T06:50:31.162Z,46.60
2018-07-27T06:53:00.013Z,46.50
2018-07-27T06:55:28.885Z,47.50
2018-07-27T06:57:57.678Z,47.50
2018-07-27T07:00:26.498Z,47.40
2018-07-27T07:02:55.337Z,47.20
2018-07-27T07:05:24.145Z,47.50
2018-07-27T07:07:53.173Z,47.30
2018-07-27T07:10:21.972Z,46.40
2018-07-27T07:12:50.761Z,46.40
2018-07-27T07:15:19.566Z,46.60
2018-07-27T07:17:48.385Z,46.10
2018-07-27T07:20:17.202Z,45.70
2018-07-27T07:22:46.124Z,44.10
2018-07-27T07:25:15.044Z,44.50
2018-07-27T07:27:43.751Z,43.70
2018-07-27T07:30:12.674Z,44.40
2018-07-27T07:32:41.472Z,42.50
2018-07-27T07:35:10.283Z,42.50
2018-07-27T07:37:39.565Z,41.70
2018-07-27T07:40:08.929Z,41.80
2018-07-27T07:42:37.878Z,41.70
2018-07-27T07:45:07.425Z,41.10
2018-07-27T07:47:36.260Z,40.30
2018-07-27T07:50:05.844Z,41.30
2018-07-27T07:52:34.688Z,38.60
2018-07-27T07:57:31.907Z,36.30
2018-07-27T08:00:00.779Z,35.40
2018-07-27T08:02:29.594Z,34.00
2018-07-27T08:04:58.362Z,33.40
2018-07-27T08:07:27.221Z,33.20
2018-07-27T08:09:55.998Z,32.30
2018-07-27T08:12:24.779Z,29.60
2018-07-27T08:14:53.794Z,30.00
2018-07-27T08:17:22.738Z,28.00
2018-07-27T08:24:48.662Z,24.80
2018-07-27T08:27:17.473Z,22.90
2018-07-27T08:29:46.593Z,22.80
2018-07-27T08:32:15.511Z,22.00
2018-07-27T08:34:44.320Z,22.00
2018-07-27T08:37:13.379Z,21.00
2018-07-27T08:39:43.149Z,20.70
2018-07-27T08:42:11.920Z,20.20
2018-07-27T08:44:41.816Z,19.30
2018-07-27T08:47:10.713Z,18.80
2018-07-27T08:49:39.550Z,18.30
2018-07-27T08:52:08.469Z,18.10
2018-07-27T08:57:05.730Z,19.60
2018-07-27T08:59:34.728Z,18.50
2018-07-27T09:02:03.646Z,17.80
2018-07-27T09:04:32.450Z,17.70
2018-07-27T09:07:01.359Z,17.40
2018-07-27T09:09:30.154Z,17.00
2018-07-27T09:11:59.018Z,15.60
2018-07-27T09:16:56.458Z,17.40
2018-07-27T09:19:25.299Z,16.10
2018-07-27T09:21:54.170Z,15.80
2018-07-27T09:24:23.366Z,16.30
2018-07-27T09:29:20.867Z,16.10
2018-07-27T09:31:49.677Z,15.80
2018-07-27T09:34:18.556Z,15.60
2018-07-27T09:36:47.417Z,15.00
2018-07-27T09:39:16.262Z,15.10
2018-07-27T09:41:45.067Z,14.70
2018-07-27T09:44:13.918Z,15.40
2018-07-27T09:46:42.775Z,14.00
2018-07-27T09:49:11.703Z,13.80
2018-07-27T09:51:40.624Z,14.20
2018-07-27T09:54:09.466Z,14.00
2018-07-27T09:56:38.294Z,13.90
2018-07-27T09:59:07.263Z,14.00
2018-07-27T10:01:36.081Z,12.90
2018-07-27T10:04:04.998Z,13.40
2018-07-27T10:06:33.879Z,12.70
2018-07-27T10:09:02.789Z,12.30
2018-07-27T10:14:00.383Z,12.70
2018-07-27T10:16:29.203Z,11.70
2018-07-27T10:18:58.031Z,11.60
2018-07-27T17:06:36.206Z,36.20
2018-07-27T17:12:11.407Z,35.80
2018-07-27T17:14:40.227Z,37.70
2018-07-27T17:17:09.110Z,37.70
2018-07-27T17:19:38.128Z,37.40
2018-07-27T17:22:07.088Z,37.20
2018-07-27T17:24:35.878Z,37.10
2018-07-27T17:27:04.832Z,37.10
2018-07-27T17:29:33.674Z,37.10
2018-07-27T17:32:02.499Z,37.70
2018-07-27T17:34:31.324Z,37.40
2018-07-27T17:37:00.111Z,37.70
2018-07-27T17:39:28.930Z,37.70
2018-07-27T17:41:57.917Z,38.20
2018-07-27T17:44:26.745Z,38.30
2018-07-27T17:47:18.128Z,38.60
2018-07-27T17:49:46.920Z,39.00
2018-07-27T17:52:15.717Z,39.60
2018-07-27T17:57:37.114Z,40.10
2018-07-27T18:00:06.667Z,40.80
2018-07-27T18:02:35.631Z,41.40
2018-07-27T18:05:04.968Z,41.80
2018-07-27T18:07:33.822Z,42.10
2018-07-27T18:10:02.630Z,42.20
2018-07-27T18:12:31.578Z,42.30
2018-07-27T18:15:00.464Z,43.30
2018-07-27T18:17:29.253Z,43.20
2018-07-27T18:19:58.060Z,43.30
2018-07-27T18:22:26.858Z,43.40
2018-07-27T18:24:55.732Z,43.70
2018-07-27T18:27:24.588Z,43.20
2018-07-27T18:29:53.453Z,43.40
2018-07-27T18:32:22.309Z,43.90
2018-07-27T18:34:51.126Z,44.30
2018-07-27T18:37:19.960Z,44.20
2018-07-27T18:39:48.780Z,44.40
2018-07-27T18:42:18.048Z,44.90
2018-07-27T18:44:46.936Z,44.70
2018-07-27T18:47:15.750Z,45.10
2018-07-27T18:49:44.584Z,45.50
2018-07-27T18:52:13.363Z,45.50
2018-07-27T18:54:42.177Z,45.20
2018-07-27T18:57:11.598Z,45.90
2018-07-27T18:59:40.391Z,46.40
2018-07-27T19:02:09.261Z,47.00
2018-07-27T19:04:43.656Z,47.10
2018-07-27T19:07:13.508Z,47.10
2018-07-27T19:09:42.345Z,47.10
2018-07-27T19:12:11.393Z,47.30
2018-07-27T19:14:40.185Z,47.20
2018-07-27T19:17:09.029Z,47.30
2018-07-27T19:19:37.918Z,47.00
2018-07-27T19:22:06.791Z,47.30
2018-07-27T19:24:35.607Z,47.30
2018-07-27T19:27:04.730Z,47.40
2018-07-27T19:29:33.514Z,47.70
2018-07-27T19:32:02.551Z,47.80
2018-07-27T19:34:31.794Z,48.20
2018-07-27T19:37:00.608Z,47.90
2018-07-27T19:39:30.096Z,48.50
2018-07-27T19:41:59.197Z,48.40
2018-07-27T19:44:27.993Z,48.40
2018-07-27T19:46:57.439Z,48.30
2018-07-27T19:49:26.585Z,48.40
2018-07-27T19:51:55.393Z,49.10
2018-07-27T19:54:24.220Z,48.90
2018-07-27T19:56:53.089Z,48.40
2018-07-27T19:59:21.901Z,49.00
2018-07-27T20:01:50.792Z,49.10
2018-07-27T20:04:19.757Z,49.00
2018-07-27T20:06:48.592Z,48.90
2018-07-27T20:09:17.403Z,48.90
2018-07-27T20:11:46.250Z,49.40
2018-07-27T20:14:15.191Z,49.40
2018-07-27T20:16:43.998Z,49.60
2018-07-27T20:19:12.855Z,48.70
2018-07-27T20:21:41.669Z,48.60
2018-07-27T20:24:10.462Z,48.80
2018-07-27T20:26:39.680Z,48.90
2018-07-27T20:29:08.509Z,49.20
2018-07-27T20:31:37.342Z,49.20
2018-07-27T20:34:06.215Z,49.70
2018-07-27T20:36:35.001Z,49.50
2018-07-27T20:39:08.656Z,50.40
2018-07-27T20:41:37.483Z,50.10
2018-07-27T20:44:06.290Z,50.30
2018-07-27T20:46:35.488Z,50.00
2018-07-27T20:49:04.409Z,50.60
2018-07-27T20:51:33.228Z,50.90
2018-07-27T20:54:02.067Z,51.00
2018-07-27T20:56:30.882Z,51.30
2018-07-27T20:58:59.880Z,51.00
2018-07-27T21:01:28.672Z,50.90
2018-07-27T21:03:57.603Z,51.20
2018-07-27T21:06:26.416Z,51.30
2018-07-27T21:08:55.192Z,51.50
2018-07-27T21:11:23.984Z,51.30
2018-07-27T21:13:52.816Z,52.40
2018-07-27T21:16:21.628Z,51.90
2018-07-27T21:18:50.437Z,51.80
2018-07-27T21:21:19.422Z,51.80
2018-07-27T21:23:48.225Z,51.80
2018-07-27T21:26:17.014Z,51.60
2018-07-27T21:28:46.074Z,51.70
2018-07-27T21:31:14.883Z,51.80
2018-07-27T21:33:43.671Z,51.70
2018-07-27T21:36:12.786Z,51.90
2018-07-27T21:38:41.603Z,52.00
2018-07-27T21:41:10.418Z,52.10
2018-07-27T21:43:39.209Z,52.10
2018-07-27T21:46:08.074Z,52.10
2018-07-27T21:48:36.920Z,52.10
2018-07-27T21:51:05.769Z,52.00
2018-07-27T21:53:34.570Z,52.10
2018-07-27T21:56:03.451Z,52.10
2018-07-27T21:58:32.282Z,51.80
2018-07-27T22:01:01.234Z,51.80
2018-07-27T22:03:30.119Z,52.00
2018-07-27T22:05:59.277Z,52.20
2018-07-27T22:08:28.074Z,51.50
2018-07-27T22:10:56.904Z,51.70
2018-07-27T22:13:25.968Z,52.10
2018-07-27T22:15:54.719Z,52.40
2018-07-27T22:18:23.550Z,52.50
2018-07-27T22:20:52.487Z,52.20
2018-07-27T22:23:21.288Z,52.50
2018-07-27T22:25:50.146Z,52.30
2018-07-27T22:28:19.080Z,52.20
2018-07-27T22:33:16.318Z,52.70
2018-07-27T22:35:45.477Z,52.70
2018-07-27T22:38:14.286Z,53.10
2018-07-27T22:40:43.136Z,53.30
2018-07-27T22:43:11.956Z,53.30
2018-07-27T22:45:40.790Z,53.40
2018-07-27T22:48:09.670Z,53.30
2018-07-27T22:50:38.705Z,53.00
2018-07-27T22:53:07.541Z,53.80
2018-07-27T22:55:36.425Z,52.90
2018-07-27T22:58:05.582Z,52.90
2018-07-27T23:00:34.354Z,52.90
2018-07-27T23:03:03.158Z,53.20
2018-07-27T23:05:32.114Z,52.90
2018-07-27T23:08:01.000Z,53.30
2018-07-27T23:10:29.793Z,53.40
2018-07-27T23:12:58.791Z,53.70
2018-07-27T23:15:27.603Z,54.20
2018-07-27T23:17:56.394Z,54.70
2018-07-27T23:20:25.231Z,54.60
2018-07-27T23:22:54.028Z,54.60
2018-07-27T23:25:22.841Z,54.40
2018-07-27T23:30:20.193Z,54.70
2018-07-27T23:32:48.967Z,54.80
2018-07-27T23:35:17.945Z,55.10
2018-07-27T23:37:46.726Z,54.90
2018-07-27T23:40:15.642Z,55.10
2018-07-27T23:42:44.470Z,55.30
2018-07-27T23:45:13.326Z,55.60
2018-07-27T23:47:42.146Z,55.70
2018-07-27T23:50:10.956Z,55.90
2018-07-27T23:52:39.804Z,55.90
2018-07-27T23:55:08.740Z,55.90
2018-07-27T23:57:37.809Z,55.90
